createdAt,value
2019-01-30T00:01:50.429Z,99834.34
2019-01-30T00:04:19.640Z,99833.84
2019-01-30T00:06:48.950Z,99843.63
2019-01-30T00:09:18.282Z,99850.44
2019-01-30T00:11:48.529Z,99851.32
2019-01-30T00:14:17.738Z,99845.30
2019-01-30T00:16:46.940Z,99847.66
2019-01-30T00:19:16.132Z,99851.70
2019-01-30T00:21:45.378Z,99845.48
2019-01-30T00:24:14.586Z,99854.17
2019-01-30T00:26:43.820Z,99856.44
2019-01-30T00:29:13.127Z,99865.53
2019-01-30T00:31:42.363Z,99863.95
2019-01-30T00:34:11.652Z,99866.03
2019-01-30T00:36:41.380Z,99867.52
2019-01-30T00:39:10.584Z,99867.42
2019-01-30T00:41:42.774Z,99873.84
2019-01-30T00:44:11.995Z,99877.49
2019-01-30T00:46:41.216Z,99881.24
2019-01-30T00:49:10.457Z,99888.64
2019-01-30T00:51:39.709Z,99887.27
2019-01-30T00:54:08.902Z,99890.92
2019-01-30T00:56:38.291Z,99893.22
2019-01-30T00:59:07.532Z,99896.58
2019-01-30T01:01:36.729Z,99895.20
2019-01-30T01:04:06.036Z,99894.20
2019-01-30T01:06:35.302Z,99894.90
2019-01-30T01:09:08.533Z,99904.08
2019-01-30T01:11:37.935Z,99901.11
2019-01-30T01:14:07.255Z,99908.11
2019-01-30T01:16:36.485Z,99909.69
2019-01-30T01:19:05.877Z,99905.53
2019-01-30T01:21:35.191Z,99905.83
2019-01-30T01:24:04.704Z,99909.28
2019-01-30T01:26:35.071Z,99908.39
2019-01-30T01:29:04.396Z,99914.31
2019-01-30T01:31:33.591Z,99915.69
2019-01-30T01:34:02.825Z,99922.19
2019-01-30T01:36:32.171Z,99924.15
2019-01-30T01:39:01.499Z,99921.17
2019-01-30T01:41:30.690Z,99929.66
2019-01-30T01:43:59.922Z,99925.70
2019-01-30T01:46:29.131Z,99927.96
2019-01-30T01:48:58.335Z,99936.05
2019-01-30T01:51:27.578Z,99934.66
2019-01-30T01:53:56.793Z,99936.73
2019-01-30T01:56:25.984Z,99939.48
2019-01-30T01:58:55.250Z,99941.55
2019-01-30T02:01:24.636Z,99940.94
2019-01-30T02:03:53.932Z,99941.23
2019-01-30T02:06:23.240Z,99948.53
2019-01-30T02:08:52.529Z,99949.31
2019-01-30T02:11:21.833Z,99953.05
2019-01-30T02:13:51.189Z,99955.02
2019-01-30T02:16:20.376Z,99949.78
2019-01-30T02:18:49.600Z,99951.06
2019-01-30T02:21:19.208Z,99948.22
2019-01-30T02:23:48.424Z,99954.73
2019-01-30T02:26:17.660Z,99957.69
2019-01-30T02:28:46.920Z,99957.97
2019-01-30T02:31:16.147Z,99964.77
2019-01-30T02:33:45.361Z,99968.22
2019-01-30T02:36:14.623Z,99968.90
2019-01-30T02:38:43.815Z,99967.41
2019-01-30T02:41:13.105Z,99969.48
2019-01-30T02:43:42.735Z,99977.77
2019-01-30T02:46:11.931Z,99974.70
2019-01-30T02:48:41.139Z,99977.45
2019-01-30T02:51:10.358Z,99979.91
2019-01-30T02:53:39.548Z,99985.42
2019-01-30T02:56:08.747Z,99982.47
2019-01-30T02:58:37.990Z,99988.77
2019-01-30T03:01:07.674Z,99997.02
2019-01-30T03:03:36.875Z,99997.70
2019-01-30T03:06:06.293Z,99998.77
2019-01-30T03:08:35.518Z,100000.12
2019-01-30T03:11:04.866Z,100006.41
2019-01-30T03:13:34.085Z,100006.80
2019-01-30T03:16:03.359Z,100007.88
2019-01-30T03:18:32.591Z,100016.45
2019-01-30T03:21:01.844Z,100018.23
2019-01-30T03:23:31.099Z,100019.50
2019-01-30T03:26:00.366Z,100016.05
2019-01-30T03:28:29.633Z,100022.74
2019-01-30T03:31:15.851Z,100020.96
2019-01-30T03:33:29.798Z,100017.69
2019-01-30T03:35:59.012Z,100027.54
2019-01-30T03:38:28.236Z,100026.83
2019-01-30T03:40:57.462Z,100032.23
2019-01-30T03:43:27.067Z,100028.55
2019-01-30T03:45:56.545Z,100029.34
2019-01-30T03:48:25.745Z,100039.86
2019-01-30T03:50:55.011Z,100040.14
2019-01-30T03:53:24.216Z,100041.31
2019-01-30T03:55:53.513Z,100042.38
2019-01-30T03:58:22.820Z,100043.16
2019-01-30T04:00:52.097Z,100042.27
2019-01-30T04:03:21.315Z,100047.39
2019-01-30T04:05:50.564Z,100047.77
2019-01-30T04:08:19.809Z,100048.00
2019-01-30T04:10:49.027Z,100053.12
2019-01-30T04:13:18.303Z,100048.16
2019-01-30T04:15:47.499Z,100051.00
2019-01-30T04:18:17.077Z,100054.84
2019-01-30T04:20:46.339Z,100064.64
2019-01-30T04:23:15.526Z,100060.19
2019-01-30T04:25:44.722Z,100061.47
2019-01-30T04:28:13.988Z,100061.92
2019-01-30T04:30:43.189Z,100059.63
2019-01-30T04:33:12.395Z,100068.14
2019-01-30T04:35:41.694Z,100062.52
2019-01-30T04:38:10.975Z,100064.58
2019-01-30T04:40:40.191Z,100060.63
2019-01-30T04:43:09.426Z,100064.47
2019-01-30T04:45:38.777Z,100066.64
2019-01-30T04:48:09.284Z,100068.64
2019-01-30T04:50:38.813Z,100064.53
2019-01-30T04:53:08.020Z,100061.47
2019-01-30T04:55:37.238Z,100061.74
2019-01-30T04:58:06.452Z,100064.97
2019-01-30T05:00:35.679Z,100061.52
2019-01-30T05:03:04.884Z,100062.02
2019-01-30T05:05:34.195Z,100070.37
2019-01-30T05:08:03.407Z,100069.80
2019-01-30T05:10:32.785Z,100072.25
2019-01-30T05:13:02.368Z,100068.96
2019-01-30T05:15:31.577Z,100065.28
2019-01-30T05:18:00.771Z,100076.06
2019-01-30T05:20:30.075Z,100074.79
2019-01-30T05:22:59.407Z,100070.06
2019-01-30T05:25:29.053Z,100070.17
2019-01-30T05:27:58.426Z,100070.67
2019-01-30T05:30:29.577Z,100076.95
2019-01-30T05:32:58.793Z,100077.16
2019-01-30T05:35:28.312Z,100079.92
2019-01-30T05:37:57.730Z,100077.64
2019-01-30T05:40:28.153Z,100087.33
2019-01-30T05:42:57.405Z,100085.03
2019-01-30T05:45:26.903Z,100094.77
2019-01-30T05:47:56.179Z,100100.77
2019-01-30T05:50:25.505Z,100103.14
2019-01-30T05:52:54.724Z,100110.69
2019-01-30T05:55:23.907Z,100115.69
2019-01-30T05:57:53.153Z,100112.67
2019-01-30T06:00:27.403Z,100119.21
2019-01-30T06:02:57.051Z,100119.87
2019-01-30T06:05:26.446Z,100124.66
2019-01-30T06:07:55.650Z,100120.20
2019-01-30T06:10:25.083Z,100126.00
2019-01-30T06:12:54.403Z,100131.65
2019-01-30T06:15:24.158Z,100132.81
2019-01-30T06:17:53.351Z,100138.93
2019-01-30T06:20:27.435Z,100142.80
2019-01-30T06:22:56.972Z,100150.84
2019-01-30T06:25:26.365Z,100164.54
2019-01-30T06:27:55.621Z,100163.32
2019-01-30T06:30:25.105Z,100171.80
2019-01-30T06:32:54.329Z,100162.13
2019-01-30T06:35:23.555Z,100168.00
2019-01-30T06:37:52.860Z,100172.10
2019-01-30T06:40:24.970Z,100171.84
2019-01-30T06:42:54.238Z,100178.73
2019-01-30T06:45:24.354Z,100181.67
2019-01-30T06:47:53.631Z,100177.33
2019-01-30T06:50:24.178Z,100171.09
2019-01-30T06:52:53.522Z,100177.09
2019-01-30T06:55:22.766Z,100172.42
2019-01-30T06:57:52.016Z,100180.76
2019-01-30T07:00:23.295Z,100184.23
2019-01-30T07:02:52.731Z,100191.81
2019-01-30T07:05:26.468Z,100189.91
2019-01-30T07:07:55.674Z,100184.44
2019-01-30T07:10:26.759Z,100187.38
2019-01-30T07:12:56.008Z,100185.98
2019-01-30T07:15:25.419Z,100182.53
2019-01-30T07:17:54.609Z,100190.20
2019-01-30T07:20:23.830Z,100198.24
2019-01-30T07:22:55.133Z,100205.69
2019-01-30T07:25:24.489Z,100208.62
2019-01-30T07:27:55.061Z,100208.62
2019-01-30T07:30:32.608Z,100208.12
2019-01-30T07:33:02.055Z,100207.86
2019-01-30T07:35:31.315Z,100209.00
2019-01-30T07:38:00.658Z,100200.41
2019-01-30T07:40:32.019Z,100204.11
2019-01-30T07:43:01.330Z,100212.02
2019-01-30T07:45:31.872Z,100214.45
2019-01-30T07:48:01.131Z,100223.25
2019-01-30T07:50:30.323Z,100222.88
2019-01-30T07:52:59.652Z,100224.20
2019-01-30T07:55:29.007Z,100224.20
2019-01-30T07:57:58.220Z,100229.17
2019-01-30T08:00:30.014Z,100240.02
2019-01-30T08:02:59.270Z,100237.98
2019-01-30T08:05:28.483Z,100241.80
2019-01-30T08:07:57.712Z,100241.68
2019-01-30T08:10:26.976Z,100240.28
2019-01-30T08:12:56.663Z,100250.74
2019-01-30T08:15:27.215Z,100251.89
2019-01-30T08:17:56.468Z,100252.40
2019-01-30T08:20:25.682Z,100248.31
2019-01-30T08:22:55.150Z,100253.55
2019-01-30T08:25:25.041Z,100258.02
2019-01-30T08:27:54.434Z,100259.28
2019-01-30T08:30:31.432Z,100262.09
2019-01-30T08:33:05.831Z,100267.70
2019-01-30T08:35:33.636Z,100267.20
2019-01-30T08:38:03.092Z,100265.66
2019-01-30T08:40:32.448Z,100273.44
2019-01-30T08:43:01.707Z,100276.52
2019-01-30T08:45:32.579Z,100277.53
2019-01-30T08:48:02.001Z,100274.72
2019-01-30T08:50:31.924Z,100281.73
2019-01-30T08:53:01.314Z,100278.91
2019-01-30T08:55:30.847Z,100291.27
2019-01-30T08:58:00.078Z,100281.45
2019-01-30T09:00:30.095Z,100288.47
2019-01-30T09:02:59.424Z,100292.55
2019-01-30T09:05:28.654Z,100305.42
2019-01-30T09:07:57.896Z,100310.39
2019-01-30T09:10:27.374Z,100320.22
2019-01-30T09:12:56.573Z,100317.17
2019-01-30T09:15:26.610Z,100314.98
2019-01-30T09:17:55.906Z,100323.38
2019-01-30T09:20:25.449Z,100330.91
2019-01-30T09:22:54.793Z,100335.22
2019-01-30T09:25:25.892Z,100343.38
2019-01-30T09:27:55.097Z,100344.98
2019-01-30T09:30:29.727Z,100345.99
2019-01-30T09:32:59.077Z,100354.58
2019-01-30T09:35:28.406Z,100347.33
2019-01-30T09:37:57.719Z,100356.91
2019-01-30T09:40:27.561Z,100355.25
2019-01-30T09:42:56.760Z,100356.77
2019-01-30T09:45:27.197Z,100360.59
2019-01-30T09:47:56.393Z,100356.01
2019-01-30T09:50:25.596Z,100363.16
2019-01-30T09:52:55.063Z,100364.72
2019-01-30T09:55:24.720Z,100363.08
2019-01-30T09:57:54.008Z,100360.67
2019-01-30T10:00:31.701Z,100364.13
2019-01-30T10:03:01.088Z,100361.58
2019-01-30T10:05:30.301Z,100370.64
2019-01-30T10:07:59.552Z,100368.86
2019-01-30T10:10:34.802Z,100370.52
2019-01-30T10:13:04.504Z,100371.02
2019-01-30T10:15:36.164Z,100374.88
2019-01-30T10:18:06.307Z,100387.14
2019-01-30T10:20:36.306Z,100384.82
2019-01-30T10:23:05.599Z,100388.63
2019-01-30T10:25:35.263Z,100390.36
2019-01-30T10:28:15.860Z,100394.58
2019-01-30T10:30:38.037Z,100388.63
2019-01-30T10:33:07.435Z,100396.52
2019-01-30T10:35:36.527Z,100393.06
2019-01-30T10:38:06.165Z,100394.09
2019-01-30T10:40:35.556Z,100396.86
2019-01-30T10:43:05.243Z,100408.70
2019-01-30T10:45:34.688Z,100412.51
2019-01-30T10:48:04.009Z,100408.68
2019-01-30T10:50:33.238Z,100416.06
2019-01-30T10:53:02.447Z,100409.94
2019-01-30T10:55:32.945Z,100419.23
2019-01-30T10:58:04.438Z,100420.65
2019-01-30T11:00:52.925Z,100418.34
2019-01-30T11:03:22.302Z,100427.37
2019-01-30T11:05:51.487Z,100423.80
2019-01-30T11:08:20.716Z,100435.14
2019-01-30T11:10:51.002Z,100427.73
2019-01-30T11:13:20.572Z,100423.88
2019-01-30T11:15:49.808Z,100423.39
2019-01-30T11:18:19.422Z,100428.77
2019-01-30T11:20:48.624Z,100427.02
2019-01-30T11:23:17.982Z,100429.09
2019-01-30T11:25:49.157Z,100430.38
2019-01-30T11:28:18.341Z,100434.61
2019-01-30T11:30:47.538Z,100439.58
2019-01-30T11:33:16.782Z,100435.10
2019-01-30T11:35:45.996Z,100440.59
2019-01-30T11:38:15.228Z,100435.51
2019-01-30T11:40:44.490Z,100437.59
2019-01-30T11:43:13.702Z,100437.36
2019-01-30T11:45:44.810Z,100441.20
2019-01-30T11:48:14.064Z,100444.52
2019-01-30T11:50:43.653Z,100450.23
2019-01-30T11:53:13.021Z,100442.44
2019-01-30T11:55:42.317Z,100448.70
2019-01-30T11:58:11.556Z,100453.98
2019-01-30T12:00:59.781Z,100460.28
2019-01-30T12:03:29.078Z,100467.82
2019-01-30T12:05:58.304Z,100464.34
2019-01-30T12:08:27.560Z,100470.81
2019-01-30T12:10:56.758Z,100471.98
2019-01-30T12:13:26.079Z,100475.14
2019-01-30T12:15:55.750Z,100467.86
2019-01-30T12:18:25.043Z,100467.23
2019-01-30T12:20:54.266Z,100472.22
2019-01-30T12:23:23.803Z,100467.39
2019-01-30T12:25:52.999Z,100302.69
2019-01-30T12:28:22.228Z,100463.22
2019-01-30T12:30:51.561Z,100458.25
2019-01-30T12:33:20.754Z,100462.06
2019-01-30T12:35:49.948Z,100468.73
2019-01-30T12:38:19.208Z,100465.14
2019-01-30T12:40:48.411Z,100477.78
2019-01-30T12:43:17.625Z,100480.58
2019-01-30T12:45:46.966Z,100481.09
2019-01-30T12:48:16.217Z,100488.13
2019-01-30T12:50:45.454Z,100496.16
2019-01-30T12:53:15.830Z,100511.58
2019-01-30T12:55:45.111Z,100507.50
2019-01-30T12:58:14.307Z,100514.51
2019-01-30T13:00:45.036Z,100521.02
2019-01-30T13:03:14.250Z,100523.22
2019-01-30T13:05:44.061Z,100523.08
2019-01-30T13:08:13.320Z,100517.84
2019-01-30T13:10:42.518Z,100535.84
2019-01-30T13:13:11.952Z,100524.25
2019-01-30T13:15:41.173Z,100527.56
2019-01-30T13:18:18.209Z,100530.49
2019-01-30T13:20:44.382Z,100526.66
2019-01-30T13:23:13.660Z,100534.97
2019-01-30T13:25:42.884Z,100530.09
2019-01-30T13:28:12.083Z,100536.61
2019-01-30T13:30:43.735Z,100531.37
2019-01-30T13:33:13.355Z,100532.78
2019-01-30T13:35:42.687Z,100528.83
2019-01-30T13:38:11.966Z,100529.33
2019-01-30T13:40:42.621Z,100530.88
2019-01-30T13:43:12.015Z,100539.28
2019-01-30T13:45:42.880Z,100536.49
2019-01-30T13:48:19.535Z,100534.32
2019-01-30T13:50:49.107Z,100536.88
2019-01-30T13:53:18.466Z,100537.77
2019-01-30T13:55:47.750Z,100542.74
2019-01-30T13:58:17.093Z,100542.11
2019-01-30T14:00:46.438Z,100539.55
2019-01-30T14:03:15.749Z,100538.27
2019-01-30T14:05:45.046Z,100548.22
2019-01-30T14:08:14.685Z,100541.97
2019-01-30T14:10:44.012Z,100551.05
2019-01-30T14:13:13.243Z,100556.19
2019-01-30T14:15:42.568Z,100548.79
2019-01-30T14:18:11.776Z,100554.05
2019-01-30T14:20:43.133Z,100549.98
2019-01-30T14:23:12.346Z,100555.73
2019-01-30T14:25:41.546Z,100557.65
2019-01-30T14:28:10.799Z,100561.61
2019-01-30T14:30:41.053Z,100553.55
2019-01-30T14:33:10.267Z,100560.19
2019-01-30T14:35:41.927Z,100558.16
2019-01-30T14:38:11.397Z,100559.08
2019-01-30T14:40:40.784Z,100559.20
2019-01-30T14:43:10.114Z,100555.50
2019-01-30T14:45:39.344Z,100563.05
2019-01-30T14:48:08.701Z,100563.70
2019-01-30T14:50:38.190Z,100568.30
2019-01-30T14:53:07.395Z,100571.64
2019-01-30T14:55:36.802Z,100580.08
2019-01-30T14:58:08.983Z,100580.59
2019-01-30T15:00:39.627Z,100584.69
2019-01-30T15:03:09.349Z,100586.35
2019-01-30T15:05:38.662Z,100587.76
2019-01-30T15:08:07.886Z,100585.34
2019-01-30T15:10:37.184Z,100582.91
2019-01-30T15:13:07.555Z,100584.19
2019-01-30T15:15:36.799Z,100583.04
2019-01-30T15:18:07.045Z,100584.95
2019-01-30T15:20:37.162Z,100587.25
2019-01-30T15:23:07.584Z,100588.27
2019-01-30T15:25:36.830Z,100583.02
2019-01-30T15:28:06.408Z,100585.19
2019-01-30T15:30:38.138Z,100581.48
2019-01-30T15:33:07.821Z,100581.62
2019-01-30T15:35:37.070Z,100588.53
2019-01-30T15:38:08.413Z,100589.68
2019-01-30T15:40:37.719Z,100590.94
2019-01-30T15:43:07.038Z,100586.85
2019-01-30T15:45:36.274Z,100589.92
2019-01-30T15:48:07.996Z,100586.47
2019-01-30T15:50:38.479Z,100588.77
2019-01-30T15:53:13.801Z,100588.66
2019-01-30T15:55:43.704Z,100600.28
2019-01-30T15:58:13.233Z,100598.75
2019-01-30T16:00:45.236Z,100596.71
2019-01-30T16:03:15.833Z,100598.89
2019-01-30T16:05:45.482Z,100593.13
2019-01-30T16:08:14.707Z,100595.70
2019-01-30T16:10:45.382Z,100596.97
2019-01-30T16:13:14.829Z,100597.48
2019-01-30T16:15:54.432Z,100593.66
2019-01-30T16:18:24.098Z,100592.13
2019-01-30T16:20:53.391Z,100598.39
2019-01-30T16:23:22.635Z,100595.20
2019-01-30T16:25:51.887Z,100600.83
2019-01-30T16:28:22.003Z,100603.00
2019-01-30T16:30:51.306Z,100605.05
2019-01-30T16:33:20.522Z,100605.70
2019-01-30T16:35:56.082Z,100612.73
2019-01-30T16:38:21.249Z,100607.75
2019-01-30T16:40:50.611Z,100617.08
2019-01-30T16:43:19.825Z,100610.30
2019-01-30T16:45:49.781Z,100615.03
2019-01-30T16:48:18.987Z,100618.36
2019-01-30T16:50:48.203Z,100613.63
2019-01-30T16:53:19.786Z,100611.07
2019-01-30T16:55:49.021Z,100590.09
2019-01-30T16:58:18.292Z,100630.77
2019-01-30T17:00:47.591Z,100623.73
2019-01-30T17:03:16.886Z,100625.66
2019-01-30T17:05:46.066Z,100627.45
2019-01-30T17:08:15.306Z,100631.03
2019-01-30T17:10:45.706Z,100632.83
2019-01-30T17:13:14.973Z,100636.02
2019-01-30T17:15:44.665Z,100632.44
2019-01-30T17:18:15.037Z,100635.12
2019-01-30T17:20:44.245Z,100636.54
2019-01-30T17:23:13.974Z,100640.12
2019-01-30T17:25:43.304Z,100637.69
2019-01-30T17:28:12.641Z,100640.63
2019-01-30T17:30:46.631Z,100646.77
2019-01-30T17:33:15.938Z,100644.73
2019-01-30T17:35:45.137Z,100646.39
2019-01-30T17:38:14.469Z,100647.54
2019-01-30T17:40:44.541Z,100651.25
2019-01-30T17:43:13.952Z,100654.06
2019-01-30T17:45:45.278Z,100648.81
2019-01-30T17:48:15.546Z,100651.25
2019-01-30T17:50:44.810Z,100657.77
2019-01-30T17:53:14.055Z,100662.00
2019-01-30T17:55:43.496Z,100670.31
2019-01-30T17:58:12.701Z,100675.17
2019-01-30T18:01:13.945Z,100672.23
2019-01-30T18:03:43.277Z,100677.86
2019-01-30T18:06:12.989Z,100679.39
2019-01-30T18:08:42.349Z,100679.39
2019-01-30T18:11:11.649Z,100698.58
2019-01-30T18:13:40.904Z,100688.85
2019-01-30T18:16:10.739Z,100684.77
2019-01-30T18:18:40.100Z,100685.14
2019-01-30T18:21:09.347Z,100689.88
2019-01-30T18:23:38.671Z,100696.01
2019-01-30T18:26:07.881Z,100693.97
2019-01-30T18:28:37.132Z,100699.08
2019-01-30T18:31:06.531Z,100698.31
2019-01-30T18:33:35.745Z,100701.39
2019-01-30T18:36:05.070Z,100706.50
2019-01-30T18:38:35.968Z,100701.00
2019-01-30T18:41:05.431Z,100703.94
2019-01-30T18:43:34.651Z,100711.75
2019-01-30T18:46:04.511Z,100700.75
2019-01-30T18:48:33.736Z,100709.07
2019-01-30T18:51:02.935Z,100707.79
2019-01-30T18:53:32.216Z,100709.84
2019-01-30T18:56:02.041Z,100709.84
2019-01-30T18:58:31.332Z,100718.53
2019-01-30T19:01:00.588Z,100724.80
2019-01-30T19:03:29.842Z,100722.37
2019-01-30T19:05:59.029Z,100720.59
2019-01-30T19:08:31.197Z,100719.95
2019-01-30T19:10:59.305Z,100714.06
2019-01-30T19:13:28.569Z,100714.70
2019-01-30T19:15:59.140Z,100721.87
2019-01-30T19:18:28.335Z,100720.86
2019-01-30T19:20:57.900Z,100722.14
2019-01-30T19:23:27.171Z,100725.20
2019-01-30T19:25:56.458Z,100722.64
2019-01-30T19:28:25.849Z,100725.98
2019-01-30T19:30:55.356Z,100728.55
2019-01-30T19:33:24.672Z,100727.01
2019-01-30T19:35:53.903Z,100732.00
2019-01-30T19:38:23.172Z,100742.50
2019-01-30T19:40:53.649Z,100740.33
2019-01-30T19:43:23.343Z,100740.20
2019-01-30T19:45:52.564Z,100744.67
2019-01-30T19:48:21.799Z,100749.67
2019-01-30T19:50:51.034Z,100750.70
2019-01-30T19:53:20.360Z,100744.55
2019-01-30T19:56:01.686Z,100745.06
2019-01-30T19:58:37.838Z,100747.50
2019-01-30T20:01:11.401Z,100742.52
2019-01-30T20:03:44.310Z,100748.27
2019-01-30T20:06:16.044Z,100753.27
2019-01-30T20:09:32.239Z,100758.52
2019-01-30T20:12:13.803Z,100761.84
2019-01-30T20:15:25.586Z,100756.59
2019-01-30T20:21:52.679Z,100759.54
2019-01-30T20:24:24.741Z,100765.30
2019-01-30T20:26:59.356Z,100766.58
2019-01-30T20:29:32.333Z,100767.09
2019-01-30T20:32:04.270Z,100772.22
2019-01-30T20:34:42.719Z,100777.47
2019-01-30T20:37:25.839Z,100775.04
2019-01-30T20:39:55.902Z,100783.48
2019-01-30T20:42:26.016Z,100782.21
2019-01-30T20:44:59.308Z,100788.87
2019-01-30T20:47:30.993Z,100794.12
2019-01-30T20:50:00.617Z,100789.51
2019-01-30T20:52:42.961Z,100789.64
2019-01-30T20:58:18.300Z,100798.09
2019-01-30T21:01:07.945Z,100802.06
2019-01-30T21:03:43.667Z,100807.44
2019-01-30T21:06:14.328Z,100801.93
2019-01-30T21:08:45.428Z,100807.69
2019-01-30T21:11:19.893Z,100811.28
2019-01-30T21:13:52.095Z,100813.97
2019-01-30T21:16:21.293Z,100817.94
2019-01-30T21:18:55.105Z,100814.61
2019-01-30T21:21:26.890Z,100811.28
2019-01-30T21:23:58.693Z,100814.73
2019-01-30T21:26:28.580Z,100817.04
2019-01-30T21:28:59.396Z,100813.33
2019-01-30T21:31:35.559Z,100815.50
2019-01-30T21:34:16.017Z,100816.40
2019-01-30T21:36:53.338Z,100816.52
2019-01-30T21:39:24.251Z,100814.09
2019-01-30T21:41:53.462Z,100816.27
2019-01-30T21:44:25.045Z,100815.88
2019-01-30T21:46:54.377Z,100815.11
2019-01-30T21:49:25.801Z,100816.39
2019-01-30T21:52:05.983Z,100813.57
2019-01-30T21:54:38.058Z,100812.80
2019-01-30T21:57:37.387Z,100815.36
2019-01-30T22:00:11.187Z,100828.69
2019-01-30T22:02:43.242Z,100826.64
2019-01-30T22:05:26.924Z,100828.82
2019-01-30T22:08:01.125Z,100830.48
2019-01-30T22:10:30.445Z,100823.30
2019-01-30T22:13:00.853Z,100836.38
2019-01-30T22:15:30.527Z,100841.63
2019-01-30T22:17:59.940Z,100840.48
2019-01-30T22:20:29.834Z,100837.53
2019-01-30T22:22:59.242Z,100838.30
2019-01-30T22:25:29.023Z,100843.04
2019-01-30T22:28:00.133Z,100845.60
2019-01-30T22:30:32.015Z,100847.40
2019-01-30T22:33:04.841Z,100846.37
2019-01-30T22:35:34.212Z,100845.08
2019-01-30T22:38:11.975Z,100839.57
2019-01-30T22:40:38.498Z,100838.67
2019-01-30T22:43:19.563Z,100836.88
2019-01-30T22:45:50.642Z,100840.73
2019-01-30T22:48:23.543Z,100838.29
2019-01-30T22:50:54.812Z,100840.21
2019-01-30T22:53:28.168Z,100843.67
2019-01-30T22:55:57.504Z,100842.39
2019-01-30T22:58:29.157Z,100844.56
2019-01-30T23:01:33.580Z,100840.21
2019-01-30T23:04:46.453Z,100842.27
2019-01-30T23:08:03.046Z,100840.09
2019-01-30T23:11:08.294Z,100833.16
2019-01-30T23:14:01.104Z,100831.75
2019-01-30T23:17:32.639Z,100827.52
2019-01-30T23:20:22.867Z,100829.58
2019-01-30T23:23:54.074Z,100836.25
2019-01-30T23:26:33.793Z,100835.86
2019-01-30T23:29:41.349Z,100842.66
2019-01-30T23:32:33.616Z,100840.34
2019-01-30T23:35:33.601Z,100841.50
2019-01-30T23:38:52.927Z,100834.32
2019-01-30T23:41:36.886Z,100845.47
2019-01-30T23:44:18.848Z,100843.67
2019-01-30T23:47:17.522Z,100838.16
2019-01-30T23:50:21.431Z,100840.22
2019-01-30T23:53:26.289Z,100835.98
2019-01-30T23:56:08.799Z,100830.47
2019-01-30T23:59:14.942Z,100836.11
